This is the latest recevied weather packets stored in our database for station/object EA7RX-4. If no packets are shown the sender has not sent any weather packets the latest 1 day(s).
| Time | Temp. | Humidity | Pressure | Rain* | Wind** | Luminosity | Snow |
|---|---|---|---|---|---|---|---|
| 1778028603 | 7.22° C | 72% | 1011.2 hPa | 0 mm | 1.34 m/s, 71° | 0 W/m² | - |
| 1778028003 | 7.78° C | 71% | 1011 hPa | 0 mm | 1.34 m/s, 86° | 0 W/m² | - |
| 1778027403 | 7.78° C | 70% | 1011.2 hPa | 0 mm | 1.34 m/s, 74° | 0 W/m² | - |
| 1778026803 | 7.78° C | 69% | 1011.3 hPa | 0 mm | 1.34 m/s, 71° | 0 W/m² | - |
| 1778026203 | 7.78° C | 70% | 1011.5 hPa | 0 mm | 1.34 m/s, 66° | 0 W/m² | - |
| 1778025603 | 8.89° C | 65% | 1011.4 hPa | 0 mm | 1.34 m/s, 56° | 0 W/m² | - |
| 1778025003 | 8.89° C | 64% | 1011.4 hPa | 0 mm | 1.79 m/s, 50° | 0 W/m² | - |
| 1778024403 | 8.89° C | 64% | 1011.4 hPa | 0 mm | 1.79 m/s, 48° | 0 W/m² | - |
| 1778023803 | 8.33° C | 65% | 1011.4 hPa | 0 mm | 1.79 m/s, 70° | 0 W/m² | - |
| 1778023203 | 9.44° C | 61% | 1011.3 hPa | 0 mm | 2.24 m/s, 56° | 0 W/m² | - |
| 1778022603 | 9.44° C | 60% | 1011.2 hPa | 0 mm | 2.68 m/s, 36° | 0 W/m² | - |
| 1778022003 | 9.44° C | 60% | 1011 hPa | 0 mm | 2.68 m/s, 9° | 0 W/m² | - |
| 1778021403 | 9.44° C | 58% | 1011.2 hPa | 0 mm | 2.68 m/s, 14° | 0 W/m² | - |
| 1778020803 | 10.56° C | 54% | 1011.2 hPa | 0 mm | 2.24 m/s, 9° | 0 W/m² | - |
| 1778020203 | 10.56° C | 51% | 1011.2 hPa | 0 mm | 1.34 m/s, 20° | 0 W/m² | - |
| 1778019603 | 11.11° C | 51% | 1011.4 hPa | 0 mm | 1.79 m/s, 347° | 0 W/m² | - |
| 1778019003 | 11.11° C | 49% | 1011.5 hPa | 0 mm | 2.24 m/s, 9° | 0 W/m² | - |
| 1778018403 | 11.11° C | 49% | 1011.3 hPa | 0 mm | 1.34 m/s, 24° | 0 W/m² | - |
| 1778017803 | 11.67° C | 48% | 1011.4 hPa | 0 mm | 1.34 m/s, 29° | 0 W/m² | - |
| 1778017203 | 11.67° C | 47% | 1011.2 hPa | 0 mm | 1.34 m/s, 29° | 0 W/m² | - |
| 1778016603 | 11.67° C | 47% | 1011.3 hPa | 0 mm | 0.89 m/s, 42° | 0 W/m² | - |
| 1778016003 | 11.67° C | 47% | 1011.2 hPa | 0 mm | 0.89 m/s, 43° | 0 W/m² | - |
| 1778015403 | 11.67° C | 46% | 1011.4 hPa | 0 mm | 0.89 m/s, 40° | 0 W/m² | - |
| 1778014803 | 11.67° C | 47% | 1011.4 hPa | 0 mm | 0.89 m/s, 39° | 0 W/m² | - |
| 1778014203 | 12.22° C | 46% | 1011.3 hPa | 0 mm | 1.34 m/s, 29° | 0 W/m² | - |
* Rain latest hour (hover to see other rain measurements)
** Current wind speed in m/s (hover to see current wind gust speed)